sensor_id;sensor_type;location;lat;lon;timestamp;P1;durP1;ratioP1;P2;durP2;ratioP2
21675;SDS011;10999;51.332;9.458;2022-07-29T00:02:18;2.92;;;1.10;;
21675;SDS011;10999;51.332;9.458;2022-07-29T00:04:45;2.25;;;0.80;;
21675;SDS011;10999;51.332;9.458;2022-07-29T00:07:11;2.72;;;0.90;;
21675;SDS011;10999;51.332;9.458;2022-07-29T00:09:39;4.43;;;1.08;;
21675;SDS011;10999;51.332;9.458;2022-07-29T00:12:16;4.15;;;1.10;;
21675;SDS011;10999;51.332;9.458;2022-07-29T00:14:51;3.47;;;1.00;;
21675;SDS011;10999;51.332;9.458;2022-07-29T00:17:18;3.13;;;1.10;;
21675;SDS011;10999;51.332;9.458;2022-07-29T00:19:45;3.72;;;0.93;;
21675;SDS011;10999;51.332;9.458;2022-07-29T00:22:12;1.27;;;0.65;;
21675;SDS011;10999;51.332;9.458;2022-07-29T00:24:38;2.50;;;1.00;;
21675;SDS011;10999;51.332;9.458;2022-07-29T00:27:05;3.67;;;0.90;;
21675;SDS011;10999;51.332;9.458;2022-07-29T00:29:32;2.65;;;0.90;;
21675;SDS011;10999;51.332;9.458;2022-07-29T00:32:00;4.55;;;0.98;;
21675;SDS011;10999;51.332;9.458;2022-07-29T00:34:28;3.72;;;1.65;;
21675;SDS011;10999;51.332;9.458;2022-07-29T00:37:13;4.50;;;1.30;;
21675;SDS011;10999;51.332;9.458;2022-07-29T00:39:40;2.47;;;1.08;;
21675;SDS011;10999;51.332;9.458;2022-07-29T00:42:06;5.40;;;1.10;;
21675;SDS011;10999;51.332;9.458;2022-07-29T00:44:37;2.95;;;0.85;;
21675;SDS011;10999;51.332;9.458;2022-07-29T00:47:05;3.25;;;1.00;;
21675;SDS011;10999;51.332;9.458;2022-07-29T00:49:34;5.05;;;1.08;;
21675;SDS011;10999;51.332;9.458;2022-07-29T00:52:01;3.70;;;1.20;;
21675;SDS011;10999;51.332;9.458;2022-07-29T00:54:30;4.07;;;1.00;;
21675;SDS011;10999;51.332;9.458;2022-07-29T00:57:00;3.75;;;1.25;;
21675;SDS011;10999;51.332;9.458;2022-07-29T00:59:27;4.65;;;1.23;;
21675;SDS011;10999;51.332;9.458;2022-07-29T01:02:01;4.25;;;1.10;;
21675;SDS011;10999;51.332;9.458;2022-07-29T01:04:31;4.03;;;1.00;;
21675;SDS011;10999;51.332;9.458;2022-07-29T01:06:58;5.43;;;1.13;;
21675;SDS011;10999;51.332;9.458;2022-07-29T01:09:33;4.05;;;1.15;;
21675;SDS011;10999;51.332;9.458;2022-07-29T01:12:13;2.78;;;1.00;;
21675;SDS011;10999;51.332;9.458;2022-07-29T01:14:43;4.75;;;1.00;;
21675;SDS011;10999;51.332;9.458;2022-07-29T01:17:12;3.72;;;0.98;;
21675;SDS011;10999;51.332;9.458;2022-07-29T01:25:54;4.22;;;1.20;;
21675;SDS011;10999;51.332;9.458;2022-07-29T01:31:12;4.22;;;1.10;;
21675;SDS011;10999;51.332;9.458;2022-07-29T01:33:55;3.10;;;1.00;;
21675;SDS011;10999;51.332;9.458;2022-07-29T01:36:43;5.47;;;0.90;;
21675;SDS011;10999;51.332;9.458;2022-07-29T01:39:21;5.07;;;1.30;;
21675;SDS011;10999;51.332;9.458;2022-07-29T01:41:58;6.75;;;1.85;;
21675;SDS011;10999;51.332;9.458;2022-07-29T01:44:41;3.95;;;1.00;;
21675;SDS011;10999;51.332;9.458;2022-07-29T01:47:32;4.85;;;1.08;;
21675;SDS011;10999;51.332;9.458;2022-07-29T01:50:14;4.32;;;1.00;;
21675;SDS011;10999;51.332;9.458;2022-07-29T01:52:45;2.67;;;0.80;;
21675;SDS011;10999;51.332;9.458;2022-07-29T01:55:18;4.05;;;1.08;;
21675;SDS011;10999;51.332;9.458;2022-07-29T01:57:48;4.05;;;0.90;;
21675;SDS011;10999;51.332;9.458;2022-07-29T02:00:18;3.38;;;1.10;;
21675;SDS011;10999;51.332;9.458;2022-07-29T02:02:46;3.35;;;0.90;;
21675;SDS011;10999;51.332;9.458;2022-07-29T02:05:15;4.53;;;1.20;;
21675;SDS011;10999;51.332;9.458;2022-07-29T02:07:44;3.30;;;1.00;;
21675;SDS011;10999;51.332;9.458;2022-07-29T02:10:13;2.58;;;0.90;;
21675;SDS011;10999;51.332;9.458;2022-07-29T02:12:43;3.97;;;1.08;;
21675;SDS011;10999;51.332;9.458;2022-07-29T02:15:16;4.47;;;1.13;;
21675;SDS011;10999;51.332;9.458;2022-07-29T02:17:45;3.17;;;1.10;;
21675;SDS011;10999;51.332;9.458;2022-07-29T02:20:16;2.80;;;0.93;;
21675;SDS011;10999;51.332;9.458;2022-07-29T02:22:43;3.90;;;1.00;;
21675;SDS011;10999;51.332;9.458;2022-07-29T02:25:12;4.20;;;0.90;;
21675;SDS011;10999;51.332;9.458;2022-07-29T02:27:42;2.17;;;0.88;;
21675;SDS011;10999;51.332;9.458;2022-07-29T02:30:10;4.00;;;1.10;;
21675;SDS011;10999;51.332;9.458;2022-07-29T02:32:39;2.55;;;0.77;;
21675;SDS011;10999;51.332;9.458;2022-07-29T02:35:08;3.35;;;1.02;;
21675;SDS011;10999;51.332;9.458;2022-07-29T02:37:36;3.97;;;1.17;;
21675;SDS011;10999;51.332;9.458;2022-07-29T02:40:03;3.83;;;0.98;;
21675;SDS011;10999;51.332;9.458;2022-07-29T02:42:31;2.10;;;0.88;;
21675;SDS011;10999;51.332;9.458;2022-07-29T02:45:02;4.10;;;1.20;;
21675;SDS011;10999;51.332;9.458;2022-07-29T02:50:17;5.50;;;1.20;;
21675;SDS011;10999;51.332;9.458;2022-07-29T02:52:54;3.95;;;1.20;;
21675;SDS011;10999;51.332;9.458;2022-07-29T02:55:58;1.75;;;0.77;;
21675;SDS011;10999;51.332;9.458;2022-07-29T02:58:29;3.05;;;1.00;;
21675;SDS011;10999;51.332;9.458;2022-07-29T03:00:59;3.60;;;1.00;;
21675;SDS011;10999;51.332;9.458;2022-07-29T03:03:29;1.83;;;0.80;;
21675;SDS011;10999;51.332;9.458;2022-07-29T03:06:03;1.60;;;0.80;;
21675;SDS011;10999;51.332;9.458;2022-07-29T03:08:31;3.70;;;0.90;;
21675;SDS011;10999;51.332;9.458;2022-07-29T03:10:58;4.72;;;1.40;;
21675;SDS011;10999;51.332;9.458;2022-07-29T03:13:27;1.80;;;0.93;;
21675;SDS011;10999;51.332;9.458;2022-07-29T03:15:56;3.42;;;0.88;;
21675;SDS011;10999;51.332;9.458;2022-07-29T03:18:24;4.95;;;1.45;;
21675;SDS011;10999;51.332;9.458;2022-07-29T03:20:51;2.42;;;0.90;;
21675;SDS011;10999;51.332;9.458;2022-07-29T03:23:19;4.25;;;1.08;;
21675;SDS011;10999;51.332;9.458;2022-07-29T03:25:50;2.85;;;0.93;;
21675;SDS011;10999;51.332;9.458;2022-07-29T03:28:17;2.65;;;0.90;;
21675;SDS011;10999;51.332;9.458;2022-07-29T03:30:44;2.92;;;0.90;;
21675;SDS011;10999;51.332;9.458;2022-07-29T03:33:11;6.32;;;1.23;;
21675;SDS011;10999;51.332;9.458;2022-07-29T03:35:39;5.07;;;1.10;;
21675;SDS011;10999;51.332;9.458;2022-07-29T03:38:06;3.28;;;1.02;;
21675;SDS011;10999;51.332;9.458;2022-07-29T03:40:56;3.53;;;0.95;;
21675;SDS011;10999;51.332;9.458;2022-07-29T03:43:23;2.47;;;0.90;;
21675;SDS011;10999;51.332;9.458;2022-07-29T03:45:53;3.22;;;1.05;;
21675;SDS011;10999;51.332;9.458;2022-07-29T03:48:22;3.60;;;1.17;;
21675;SDS011;10999;51.332;9.458;2022-07-29T03:50:51;2.85;;;1.00;;
21675;SDS011;10999;51.332;9.458;2022-07-29T03:53:18;3.55;;;1.05;;
21675;SDS011;10999;51.332;9.458;2022-07-29T03:55:45;2.80;;;1.10;;
21675;SDS011;10999;51.332;9.458;2022-07-29T03:58:14;3.42;;;1.17;;
21675;SDS011;10999;51.332;9.458;2022-07-29T04:00:42;3.83;;;1.10;;
21675;SDS011;10999;51.332;9.458;2022-07-29T04:03:10;3.15;;;0.90;;
21675;SDS011;10999;51.332;9.458;2022-07-29T04:05:37;4.43;;;1.00;;
21675;SDS011;10999;51.332;9.458;2022-07-29T04:08:05;3.88;;;1.00;;
21675;SDS011;10999;51.332;9.458;2022-07-29T04:10:32;4.30;;;1.05;;
21675;SDS011;10999;51.332;9.458;2022-07-29T04:13:00;3.38;;;0.90;;
21675;SDS011;10999;51.332;9.458;2022-07-29T04:15:27;4.20;;;1.08;;
21675;SDS011;10999;51.332;9.458;2022-07-29T04:17:56;3.42;;;1.10;;
21675;SDS011;10999;51.332;9.458;2022-07-29T04:20:23;3.70;;;0.90;;
21675;SDS011;10999;51.332;9.458;2022-07-29T04:22:50;2.83;;;0.70;;
21675;SDS011;10999;51.332;9.458;2022-07-29T04:25:17;2.53;;;0.93;;
21675;SDS011;10999;51.332;9.458;2022-07-29T04:27:43;2.45;;;0.95;;
21675;SDS011;10999;51.332;9.458;2022-07-29T04:30:37;4.20;;;1.73;;
21675;SDS011;10999;51.332;9.458;2022-07-29T04:33:05;3.38;;;1.20;;
21675;SDS011;10999;51.332;9.458;2022-07-29T04:35:36;3.80;;;0.93;;
21675;SDS011;10999;51.332;9.458;2022-07-29T04:38:17;4.72;;;1.15;;
21675;SDS011;10999;51.332;9.458;2022-07-29T04:40:44;3.15;;;1.20;;
21675;SDS011;10999;51.332;9.458;2022-07-29T04:43:14;3.97;;;1.45;;
21675;SDS011;10999;51.332;9.458;2022-07-29T04:45:47;3.85;;;1.10;;
21675;SDS011;10999;51.332;9.458;2022-07-29T04:48:14;4.90;;;1.00;;
21675;SDS011;10999;51.332;9.458;2022-07-29T04:50:41;5.05;;;0.90;;
21675;SDS011;10999;51.332;9.458;2022-07-29T04:53:08;2.42;;;0.80;;
21675;SDS011;10999;51.332;9.458;2022-07-29T04:55:34;3.92;;;0.90;;
21675;SDS011;10999;51.332;9.458;2022-07-29T04:58:04;3.33;;;1.17;;
21675;SDS011;10999;51.332;9.458;2022-07-29T05:00:30;2.70;;;0.95;;
21675;SDS011;10999;51.332;9.458;2022-07-29T05:02:58;3.22;;;0.90;;
21675;SDS011;10999;51.332;9.458;2022-07-29T05:05:25;2.72;;;0.90;;
21675;SDS011;10999;51.332;9.458;2022-07-29T05:07:52;3.92;;;0.98;;
21675;SDS011;10999;51.332;9.458;2022-07-29T05:10:19;3.92;;;1.10;;
21675;SDS011;10999;51.332;9.458;2022-07-29T05:12:45;3.22;;;1.30;;
21675;SDS011;10999;51.332;9.458;2022-07-29T05:15:13;2.80;;;1.15;;
21675;SDS011;10999;51.332;9.458;2022-07-29T05:17:40;3.50;;;0.77;;
21675;SDS011;10999;51.332;9.458;2022-07-29T05:20:06;2.97;;;0.90;;
21675;SDS011;10999;51.332;9.458;2022-07-29T05:22:34;3.53;;;1.10;;
21675;SDS011;10999;51.332;9.458;2022-07-29T05:25:00;5.68;;;1.02;;
21675;SDS011;10999;51.332;9.458;2022-07-29T05:27:34;4.25;;;1.00;;
21675;SDS011;10999;51.332;9.458;2022-07-29T05:30:02;4.85;;;1.48;;
21675;SDS011;10999;51.332;9.458;2022-07-29T05:32:29;4.53;;;1.10;;
21675;SDS011;10999;51.332;9.458;2022-07-29T05:34:55;4.25;;;1.10;;
21675;SDS011;10999;51.332;9.458;2022-07-29T05:37:22;5.22;;;0.90;;
21675;SDS011;10999;51.332;9.458;2022-07-29T05:39:49;5.55;;;1.20;;
21675;SDS011;10999;51.332;9.458;2022-07-29T05:42:22;3.05;;;1.20;;
21675;SDS011;10999;51.332;9.458;2022-07-29T05:44:52;5.28;;;1.20;;
21675;SDS011;10999;51.332;9.458;2022-07-29T05:47:19;3.50;;;0.82;;
21675;SDS011;10999;51.332;9.458;2022-07-29T05:49:46;3.03;;;1.15;;
21675;SDS011;10999;51.332;9.458;2022-07-29T05:52:13;3.10;;;1.00;;
21675;SDS011;10999;51.332;9.458;2022-07-29T05:54:39;4.25;;;1.50;;
21675;SDS011;10999;51.332;9.458;2022-07-29T05:57:06;4.43;;;1.20;;
21675;SDS011;10999;51.332;9.458;2022-07-29T05:59:36;2.55;;;0.98;;
21675;SDS011;10999;51.332;9.458;2022-07-29T06:02:04;7.10;;;1.15;;
21675;SDS011;10999;51.332;9.458;2022-07-29T06:04:33;8.02;;;1.33;;
21675;SDS011;10999;51.332;9.458;2022-07-29T06:07:00;4.65;;;1.33;;
21675;SDS011;10999;51.332;9.458;2022-07-29T06:09:27;3.25;;;1.48;;
21675;SDS011;10999;51.332;9.458;2022-07-29T06:11:55;3.13;;;1.15;;
21675;SDS011;10999;51.332;9.458;2022-07-29T06:14:21;3.10;;;0.90;;
21675;SDS011;10999;51.332;9.458;2022-07-29T06:16:48;2.40;;;1.20;;
21675;SDS011;10999;51.332;9.458;2022-07-29T06:19:15;5.22;;;1.10;;
21675;SDS011;10999;51.332;9.458;2022-07-29T06:21:42;4.60;;;1.00;;
21675;SDS011;10999;51.332;9.458;2022-07-29T06:24:10;3.25;;;0.90;;
21675;SDS011;10999;51.332;9.458;2022-07-29T06:26:41;4.25;;;1.20;;
21675;SDS011;10999;51.332;9.458;2022-07-29T06:29:09;4.72;;;1.00;;
21675;SDS011;10999;51.332;9.458;2022-07-29T06:31:39;2.35;;;0.88;;
21675;SDS011;10999;51.332;9.458;2022-07-29T06:34:06;4.07;;;1.38;;
21675;SDS011;10999;51.332;9.458;2022-07-29T06:36:36;4.50;;;1.00;;
21675;SDS011;10999;51.332;9.458;2022-07-29T06:39:07;6.10;;;1.27;;
21675;SDS011;10999;51.332;9.458;2022-07-29T06:41:36;4.93;;;1.17;;
21675;SDS011;10999;51.332;9.458;2022-07-29T06:44:03;4.60;;;1.40;;
21675;SDS011;10999;51.332;9.458;2022-07-29T06:46:30;3.63;;;0.80;;
21675;SDS011;10999;51.332;9.458;2022-07-29T06:48:58;4.78;;;1.00;;
21675;SDS011;10999;51.332;9.458;2022-07-29T06:51:28;3.55;;;1.27;;
21675;SDS011;10999;51.332;9.458;2022-07-29T06:53:55;4.80;;;1.50;;
21675;SDS011;10999;51.332;9.458;2022-07-29T06:56:29;5.10;;;1.13;;
21675;SDS011;10999;51.332;9.458;2022-07-29T06:59:04;3.33;;;1.10;;
21675;SDS011;10999;51.332;9.458;2022-07-29T07:01:32;4.07;;;1.35;;
21675;SDS011;10999;51.332;9.458;2022-07-29T07:03:59;6.35;;;1.10;;
21675;SDS011;10999;51.332;9.458;2022-07-29T07:06:26;4.65;;;1.20;;
21675;SDS011;10999;51.332;9.458;2022-07-29T07:08:54;5.75;;;1.20;;
21675;SDS011;10999;51.332;9.458;2022-07-29T07:11:21;3.70;;;1.10;;
21675;SDS011;10999;51.332;9.458;2022-07-29T07:13:49;3.17;;;0.93;;
21675;SDS011;10999;51.332;9.458;2022-07-29T07:16:16;3.40;;;0.90;;
21675;SDS011;10999;51.332;9.458;2022-07-29T07:18:42;4.60;;;1.13;;
21675;SDS011;10999;51.332;9.458;2022-07-29T07:21:12;5.25;;;1.08;;
21675;SDS011;10999;51.332;9.458;2022-07-29T07:23:44;5.75;;;1.80;;
21675;SDS011;10999;51.332;9.458;2022-07-29T07:26:12;3.75;;;1.10;;
21675;SDS011;10999;51.332;9.458;2022-07-29T07:28:39;3.75;;;1.20;;
21675;SDS011;10999;51.332;9.458;2022-07-29T07:31:06;5.03;;;1.42;;
21675;SDS011;10999;51.332;9.458;2022-07-29T07:33:33;4.43;;;1.20;;
21675;SDS011;10999;51.332;9.458;2022-07-29T07:36:00;5.90;;;1.00;;
21675;SDS011;10999;51.332;9.458;2022-07-29T07:38:27;4.55;;;0.93;;
21675;SDS011;10999;51.332;9.458;2022-07-29T07:40:55;3.28;;;1.08;;
21675;SDS011;10999;51.332;9.458;2022-07-29T07:43:22;3.45;;;1.00;;
21675;SDS011;10999;51.332;9.458;2022-07-29T07:45:49;2.13;;;0.90;;
21675;SDS011;10999;51.332;9.458;2022-07-29T07:48:16;4.13;;;1.08;;
21675;SDS011;10999;51.332;9.458;2022-07-29T07:50:42;2.15;;;1.00;;
21675;SDS011;10999;51.332;9.458;2022-07-29T07:53:10;3.28;;;0.77;;
21675;SDS011;10999;51.332;9.458;2022-07-29T07:55:43;2.88;;;1.30;;
21675;SDS011;10999;51.332;9.458;2022-07-29T07:58:29;3.17;;;1.58;;
21675;SDS011;10999;51.332;9.458;2022-07-29T08:00:56;4.70;;;1.20;;
21675;SDS011;10999;51.332;9.458;2022-07-29T08:03:23;6.63;;;1.40;;
21675;SDS011;10999;51.332;9.458;2022-07-29T08:05:50;4.95;;;1.60;;
21675;SDS011;10999;51.332;9.458;2022-07-29T08:08:17;3.45;;;1.27;;
21675;SDS011;10999;51.332;9.458;2022-07-29T08:10:44;3.80;;;1.20;;
21675;SDS011;10999;51.332;9.458;2022-07-29T08:13:22;3.20;;;1.40;;
21675;SDS011;10999;51.332;9.458;2022-07-29T08:15:51;4.20;;;1.30;;
21675;SDS011;10999;51.332;9.458;2022-07-29T08:18:25;3.47;;;1.25;;
21675;SDS011;10999;51.332;9.458;2022-07-29T08:20:53;4.07;;;1.20;;
21675;SDS011;10999;51.332;9.458;2022-07-29T08:23:20;5.18;;;1.63;;
21675;SDS011;10999;51.332;9.458;2022-07-29T08:25:46;6.25;;;2.25;;
21675;SDS011;10999;51.332;9.458;2022-07-29T08:28:15;4.50;;;1.58;;
21675;SDS011;10999;51.332;9.458;2022-07-29T08:30:43;5.35;;;2.15;;
21675;SDS011;10999;51.332;9.458;2022-07-29T08:33:09;6.18;;;2.13;;
21675;SDS011;10999;51.332;9.458;2022-07-29T08:35:36;5.25;;;1.52;;
21675;SDS011;10999;51.332;9.458;2022-07-29T08:38:04;5.63;;;1.88;;
21675;SDS011;10999;51.332;9.458;2022-07-29T08:40:32;7.25;;;2.03;;
21675;SDS011;10999;51.332;9.458;2022-07-29T08:43:05;4.60;;;1.60;;
21675;SDS011;10999;51.332;9.458;2022-07-29T08:45:43;8.00;;;2.05;;
21675;SDS011;10999;51.332;9.458;2022-07-29T08:48:18;7.50;;;1.77;;
21675;SDS011;10999;51.332;9.458;2022-07-29T08:50:52;4.38;;;1.60;;
21675;SDS011;10999;51.332;9.458;2022-07-29T08:55:49;3.47;;;1.35;;
21675;SDS011;10999;51.332;9.458;2022-07-29T08:58:16;8.35;;;1.90;;
21675;SDS011;10999;51.332;9.458;2022-07-29T09:00:52;4.45;;;1.67;;
21675;SDS011;10999;51.332;9.458;2022-07-29T09:03:23;6.30;;;1.70;;
21675;SDS011;10999;51.332;9.458;2022-07-29T09:05:51;6.13;;;1.95;;
21675;SDS011;10999;51.332;9.458;2022-07-29T09:08:19;4.93;;;1.80;;
21675;SDS011;10999;51.332;9.458;2022-07-29T09:10:46;5.28;;;1.60;;
21675;SDS011;10999;51.332;9.458;2022-07-29T09:13:14;5.53;;;1.75;;
21675;SDS011;10999;51.332;9.458;2022-07-29T09:15:42;4.63;;;1.58;;
21675;SDS011;10999;51.332;9.458;2022-07-29T09:18:09;2.78;;;1.45;;
21675;SDS011;10999;51.332;9.458;2022-07-29T09:20:55;6.55;;;1.65;;
21675;SDS011;10999;51.332;9.458;2022-07-29T09:23:41;4.88;;;1.80;;
21675;SDS011;10999;51.332;9.458;2022-07-29T09:26:32;5.63;;;2.08;;
21675;SDS011;10999;51.332;9.458;2022-07-29T09:29:07;6.47;;;1.50;;
21675;SDS011;10999;51.332;9.458;2022-07-29T09:31:46;4.45;;;1.70;;
21675;SDS011;10999;51.332;9.458;2022-07-29T09:34:17;6.85;;;1.50;;
21675;SDS011;10999;51.332;9.458;2022-07-29T09:36:51;5.15;;;1.60;;
21675;SDS011;10999;51.332;9.458;2022-07-29T09:39:26;5.32;;;1.38;;
21675;SDS011;10999;51.332;9.458;2022-07-29T09:42:12;5.03;;;1.60;;
21675;SDS011;10999;51.332;9.458;2022-07-29T09:44:45;6.15;;;1.52;;
21675;SDS011;10999;51.332;9.458;2022-07-29T09:47:18;6.22;;;1.60;;
21675;SDS011;10999;51.332;9.458;2022-07-29T09:52:26;4.82;;;1.70;;
21675;SDS011;10999;51.332;9.458;2022-07-29T09:55:05;5.63;;;1.65;;
21675;SDS011;10999;51.332;9.458;2022-07-29T09:57:32;4.38;;;1.55;;
21675;SDS011;10999;51.332;9.458;2022-07-29T10:00:01;7.50;;;2.35;;
21675;SDS011;10999;51.332;9.458;2022-07-29T10:02:39;5.93;;;1.60;;
21675;SDS011;10999;51.332;9.458;2022-07-29T10:05:24;4.28;;;1.38;;
21675;SDS011;10999;51.332;9.458;2022-07-29T10:08:02;6.10;;;1.63;;
21675;SDS011;10999;51.332;9.458;2022-07-29T10:10:30;4.50;;;1.52;;
21675;SDS011;10999;51.332;9.458;2022-07-29T10:13:03;6.53;;;1.40;;
21675;SDS011;10999;51.332;9.458;2022-07-29T10:15:41;8.90;;;1.90;;
21675;SDS011;10999;51.332;9.458;2022-07-29T10:18:12;5.18;;;1.33;;
21675;SDS011;10999;51.332;9.458;2022-07-29T10:20:40;5.53;;;1.40;;
21675;SDS011;10999;51.332;9.458;2022-07-29T10:23:08;2.92;;;1.30;;
21675;SDS011;10999;51.332;9.458;2022-07-29T10:25:35;5.95;;;1.70;;
21675;SDS011;10999;51.332;9.458;2022-07-29T10:28:02;3.85;;;1.52;;
21675;SDS011;10999;51.332;9.458;2022-07-29T10:30:31;6.38;;;2.30;;
21675;SDS011;10999;51.332;9.458;2022-07-29T10:33:02;5.25;;;1.55;;
21675;SDS011;10999;51.332;9.458;2022-07-29T10:35:46;6.05;;;1.73;;
21675;SDS011;10999;51.332;9.458;2022-07-29T10:46:49;4.97;;;1.80;;
21675;SDS011;10999;51.332;9.458;2022-07-29T10:49:21;5.65;;;1.70;;
21675;SDS011;10999;51.332;9.458;2022-07-29T10:52:00;6.88;;;2.28;;
21675;SDS011;10999;51.332;9.458;2022-07-29T10:59:43;6.38;;;1.70;;
21675;SDS011;10999;51.332;9.458;2022-07-29T11:07:37;6.13;;;2.17;;
21675;SDS011;10999;51.332;9.458;2022-07-29T11:12:46;5.82;;;2.00;;
21675;SDS011;10999;51.332;9.458;2022-07-29T11:15:14;8.10;;;1.75;;
21675;SDS011;10999;51.332;9.458;2022-07-29T11:20:42;5.68;;;1.60;;
21675;SDS011;10999;51.332;9.458;2022-07-29T11:47:53;4.50;;;1.60;;
21675;SDS011;10999;51.332;9.458;2022-07-29T11:50:44;4.53;;;2.00;;
21675;SDS011;10999;51.332;9.458;2022-07-29T11:53:14;6.30;;;1.90;;
21675;SDS011;10999;51.332;9.458;2022-07-29T11:55:42;5.78;;;1.80;;
21675;SDS011;10999;51.332;9.458;2022-07-29T11:58:20;5.78;;;1.92;;
21675;SDS011;10999;51.332;9.458;2022-07-29T12:00:50;5.10;;;1.80;;
21675;SDS011;10999;51.332;9.458;2022-07-29T12:03:23;6.45;;;1.67;;
21675;SDS011;10999;51.332;9.458;2022-07-29T12:06:01;5.13;;;2.08;;
21675;SDS011;10999;51.332;9.458;2022-07-29T12:08:39;5.63;;;1.83;;
21675;SDS011;10999;51.332;9.458;2022-07-29T12:11:15;3.90;;;1.50;;
21675;SDS011;10999;51.332;9.458;2022-07-29T12:13:48;3.60;;;1.60;;
21675;SDS011;10999;51.332;9.458;2022-07-29T12:16:16;4.05;;;1.63;;
21675;SDS011;10999;51.332;9.458;2022-07-29T12:18:58;4.05;;;1.63;;
21675;SDS011;10999;51.332;9.458;2022-07-29T12:21:27;3.08;;;1.40;;
21675;SDS011;10999;51.332;9.458;2022-07-29T12:24:22;4.78;;;1.77;;
21675;SDS011;10999;51.332;9.458;2022-07-29T12:26:54;6.35;;;1.92;;
21675;SDS011;10999;51.332;9.458;2022-07-29T12:29:22;3.85;;;1.60;;
21675;SDS011;10999;51.332;9.458;2022-07-29T12:32:00;4.63;;;1.50;;
21675;SDS011;10999;51.332;9.458;2022-07-29T12:34:29;5.65;;;1.90;;
21675;SDS011;10999;51.332;9.458;2022-07-29T12:36:57;4.57;;;1.75;;
21675;SDS011;10999;51.332;9.458;2022-07-29T12:39:29;7.50;;;2.10;;
21675;SDS011;10999;51.332;9.458;2022-07-29T12:41:55;7.13;;;2.10;;
21675;SDS011;10999;51.332;9.458;2022-07-29T12:47:16;6.50;;;1.73;;
21675;SDS011;10999;51.332;9.458;2022-07-29T12:49:44;5.35;;;1.90;;
21675;SDS011;10999;51.332;9.458;2022-07-29T12:52:26;3.92;;;1.83;;
21675;SDS011;10999;51.332;9.458;2022-07-29T12:55:03;4.55;;;1.90;;
21675;SDS011;10999;51.332;9.458;2022-07-29T12:57:31;5.38;;;2.28;;
21675;SDS011;10999;51.332;9.458;2022-07-29T13:00:07;2.92;;;1.40;;
21675;SDS011;10999;51.332;9.458;2022-07-29T13:02:37;6.65;;;2.00;;
21675;SDS011;10999;51.332;9.458;2022-07-29T13:05:05;5.68;;;1.70;;
21675;SDS011;10999;51.332;9.458;2022-07-29T13:07:34;4.60;;;2.33;;
21675;SDS011;10999;51.332;9.458;2022-07-29T13:10:22;5.68;;;2.13;;
21675;SDS011;10999;51.332;9.458;2022-07-29T13:15:40;6.00;;;2.03;;
21675;SDS011;10999;51.332;9.458;2022-07-29T13:21:13;4.70;;;2.13;;
21675;SDS011;10999;51.332;9.458;2022-07-29T13:23:41;6.00;;;2.08;;
21675;SDS011;10999;51.332;9.458;2022-07-29T13:26:09;5.55;;;2.50;;
21675;SDS011;10999;51.332;9.458;2022-07-29T13:28:42;6.53;;;2.05;;
21675;SDS011;10999;51.332;9.458;2022-07-29T13:31:09;6.50;;;2.17;;
21675;SDS011;10999;51.332;9.458;2022-07-29T13:33:36;5.28;;;1.98;;
21675;SDS011;10999;51.332;9.458;2022-07-29T13:36:03;4.97;;;2.15;;
21675;SDS011;10999;51.332;9.458;2022-07-29T13:38:30;4.63;;;1.70;;
21675;SDS011;10999;51.332;9.458;2022-07-29T13:40:57;8.93;;;2.40;;
21675;SDS011;10999;51.332;9.458;2022-07-29T13:43:24;6.13;;;2.22;;
21675;SDS011;10999;51.332;9.458;2022-07-29T13:45:51;6.30;;;2.10;;
21675;SDS011;10999;51.332;9.458;2022-07-29T13:48:18;6.18;;;2.13;;
21675;SDS011;10999;51.332;9.458;2022-07-29T13:50:44;5.13;;;1.75;;
21675;SDS011;10999;51.332;9.458;2022-07-29T13:53:12;6.75;;;2.63;;
21675;SDS011;10999;51.332;9.458;2022-07-29T13:55:43;7.82;;;2.65;;
21675;SDS011;10999;51.332;9.458;2022-07-29T13:58:10;6.45;;;2.55;;
21675;SDS011;10999;51.332;9.458;2022-07-29T14:00:37;5.28;;;2.00;;
21675;SDS011;10999;51.332;9.458;2022-07-29T14:03:03;4.13;;;1.75;;
21675;SDS011;10999;51.332;9.458;2022-07-29T14:05:30;6.18;;;1.77;;
21675;SDS011;10999;51.332;9.458;2022-07-29T14:07:57;5.38;;;2.15;;
21675;SDS011;10999;51.332;9.458;2022-07-29T14:10:24;6.25;;;2.17;;
21675;SDS011;10999;51.332;9.458;2022-07-29T14:12:50;5.25;;;2.13;;
21675;SDS011;10999;51.332;9.458;2022-07-29T14:15:17;5.25;;;2.03;;
21675;SDS011;10999;51.332;9.458;2022-07-29T14:17:44;7.00;;;1.88;;
21675;SDS011;10999;51.332;9.458;2022-07-29T14:20:11;4.80;;;2.08;;
21675;SDS011;10999;51.332;9.458;2022-07-29T14:22:38;5.13;;;2.20;;
21675;SDS011;10999;51.332;9.458;2022-07-29T14:25:10;7.55;;;3.05;;
21675;SDS011;10999;51.332;9.458;2022-07-29T14:27:40;6.72;;;2.28;;
21675;SDS011;10999;51.332;9.458;2022-07-29T14:30:08;6.63;;;2.10;;
21675;SDS011;10999;51.332;9.458;2022-07-29T14:32:36;5.72;;;2.40;;
21675;SDS011;10999;51.332;9.458;2022-07-29T14:35:04;5.43;;;2.13;;
21675;SDS011;10999;51.332;9.458;2022-07-29T14:37:31;5.50;;;1.90;;
21675;SDS011;10999;51.332;9.458;2022-07-29T14:40:05;4.63;;;2.55;;
21675;SDS011;10999;51.332;9.458;2022-07-29T14:42:33;7.38;;;2.50;;
21675;SDS011;10999;51.332;9.458;2022-07-29T14:45:00;6.13;;;2.47;;
21675;SDS011;10999;51.332;9.458;2022-07-29T14:47:27;4.85;;;1.90;;
21675;SDS011;10999;51.332;9.458;2022-07-29T14:49:55;7.03;;;2.25;;
21675;SDS011;10999;51.332;9.458;2022-07-29T14:52:21;7.28;;;2.50;;
21675;SDS011;10999;51.332;9.458;2022-07-29T14:54:48;6.35;;;2.13;;
21675;SDS011;10999;51.332;9.458;2022-07-29T14:57:15;7.47;;;2.45;;
21675;SDS011;10999;51.332;9.458;2022-07-29T14:59:42;6.43;;;2.50;;
21675;SDS011;10999;51.332;9.458;2022-07-29T15:02:09;5.53;;;2.28;;
21675;SDS011;10999;51.332;9.458;2022-07-29T15:04:36;7.07;;;2.28;;
21675;SDS011;10999;51.332;9.458;2022-07-29T15:07:02;6.15;;;2.20;;
21675;SDS011;10999;51.332;9.458;2022-07-29T15:09:29;7.50;;;2.47;;
21675;SDS011;10999;51.332;9.458;2022-07-29T15:11:56;4.95;;;2.38;;
21675;SDS011;10999;51.332;9.458;2022-07-29T15:14:23;5.00;;;2.05;;
21675;SDS011;10999;51.332;9.458;2022-07-29T15:16:50;5.65;;;2.20;;
21675;SDS011;10999;51.332;9.458;2022-07-29T15:19:18;5.88;;;2.25;;
21675;SDS011;10999;51.332;9.458;2022-07-29T15:21:45;7.50;;;2.33;;
21675;SDS011;10999;51.332;9.458;2022-07-29T15:24:14;7.05;;;2.42;;
21675;SDS011;10999;51.332;9.458;2022-07-29T15:26:42;7.20;;;2.40;;
21675;SDS011;10999;51.332;9.458;2022-07-29T15:29:09;5.15;;;2.10;;
21675;SDS011;10999;51.332;9.458;2022-07-29T15:31:36;4.57;;;1.90;;
21675;SDS011;10999;51.332;9.458;2022-07-29T15:34:03;5.93;;;2.42;;
21675;SDS011;10999;51.332;9.458;2022-07-29T15:36:31;7.07;;;2.45;;
21675;SDS011;10999;51.332;9.458;2022-07-29T15:39:19;4.40;;;2.00;;
21675;SDS011;10999;51.332;9.458;2022-07-29T15:41:48;5.95;;;2.55;;
21675;SDS011;10999;51.332;9.458;2022-07-29T15:44:16;3.75;;;1.90;;
21675;SDS011;10999;51.332;9.458;2022-07-29T15:46:46;8.27;;;2.42;;
21675;SDS011;10999;51.332;9.458;2022-07-29T15:52:13;7.60;;;2.65;;
21675;SDS011;10999;51.332;9.458;2022-07-29T15:54:41;5.38;;;2.28;;
21675;SDS011;10999;51.332;9.458;2022-07-29T15:57:08;6.07;;;2.40;;
21675;SDS011;10999;51.332;9.458;2022-07-29T15:59:35;6.38;;;2.38;;
21675;SDS011;10999;51.332;9.458;2022-07-29T16:02:02;7.70;;;2.55;;
21675;SDS011;10999;51.332;9.458;2022-07-29T16:04:30;4.57;;;2.08;;
21675;SDS011;10999;51.332;9.458;2022-07-29T16:06:57;5.18;;;2.53;;
21675;SDS011;10999;51.332;9.458;2022-07-29T16:09:24;6.28;;;2.35;;
21675;SDS011;10999;51.332;9.458;2022-07-29T16:11:51;6.10;;;2.60;;
21675;SDS011;10999;51.332;9.458;2022-07-29T16:14:19;6.85;;;2.20;;
21675;SDS011;10999;51.332;9.458;2022-07-29T16:16:46;6.95;;;3.00;;
21675;SDS011;10999;51.332;9.458;2022-07-29T16:19:13;6.15;;;2.78;;
21675;SDS011;10999;51.332;9.458;2022-07-29T16:21:40;4.05;;;2.00;;
21675;SDS011;10999;51.332;9.458;2022-07-29T16:24:07;5.88;;;2.53;;